createdAt,value
2023-05-04T00:02:05.674Z,5.90
2023-05-04T00:04:32.283Z,5.50
2023-05-04T00:06:59.136Z,6.35
2023-05-04T00:09:25.792Z,6.05
2023-05-04T00:11:52.467Z,6.20
2023-05-04T00:14:19.061Z,5.40
2023-05-04T00:16:45.720Z,5.90
2023-05-04T00:19:12.501Z,5.70
2023-05-04T00:21:39.089Z,5.30
2023-05-04T00:24:05.858Z,5.53
2023-05-04T00:26:32.459Z,5.40
2023-05-04T00:28:59.047Z,5.60
2023-05-04T00:31:25.730Z,5.13
2023-05-04T00:33:52.323Z,5.18
2023-05-04T00:36:18.911Z,5.90
2023-05-04T00:38:50.382Z,5.93
2023-05-04T00:41:18.528Z,5.50
2023-05-04T00:43:45.666Z,5.25
2023-05-04T00:46:12.936Z,5.75
2023-05-04T00:48:43.250Z,4.93
2023-05-04T00:51:12.082Z,5.45
2023-05-04T00:53:39.448Z,5.15
2023-05-04T00:56:07.546Z,5.32
2023-05-04T00:58:35.171Z,5.60
2023-05-04T01:01:12.402Z,5.38
2023-05-04T01:03:39.209Z,5.15
2023-05-04T01:06:12.966Z,4.78
2023-05-04T01:08:43.650Z,5.20
2023-05-04T01:11:13.780Z,4.85
2023-05-04T01:13:40.772Z,5.13
2023-05-04T01:16:07.707Z,5.13
2023-05-04T01:18:34.601Z,5.95
2023-05-04T01:21:01.257Z,5.22
2023-05-04T01:23:27.975Z,5.50
2023-05-04T01:26:07.000Z,5.07
2023-05-04T01:28:41.452Z,5.13
2023-05-04T01:31:10.032Z,5.60
2023-05-04T01:33:38.020Z,5.30
2023-05-04T01:36:05.392Z,5.60
2023-05-04T01:38:32.044Z,5.28
2023-05-04T01:40:58.652Z,5.45
2023-05-04T01:43:25.527Z,5.53
2023-05-04T01:45:52.174Z,5.40
2023-05-04T01:48:19.002Z,5.15
2023-05-04T01:50:45.562Z,5.05
2023-05-04T01:53:12.100Z,5.25
2023-05-04T01:55:38.700Z,5.32
2023-05-04T01:58:05.444Z,5.60
2023-05-04T02:00:32.183Z,6.40
2023-05-04T02:02:58.800Z,5.57
2023-05-04T02:05:25.681Z,5.47
2023-05-04T02:07:52.230Z,5.57
2023-05-04T02:10:18.836Z,5.90
2023-05-04T02:12:46.414Z,5.55
2023-05-04T02:15:13.218Z,5.38
2023-05-04T02:17:39.906Z,5.97
2023-05-04T02:20:07.229Z,5.88
2023-05-04T02:22:34.061Z,5.55
2023-05-04T02:25:00.913Z,5.82
2023-05-04T02:27:27.484Z,6.28
2023-05-04T02:29:54.256Z,7.35
2023-05-04T02:32:21.082Z,6.25
2023-05-04T02:34:47.625Z,5.95
2023-05-04T02:37:14.403Z,6.03
2023-05-04T02:39:41.010Z,6.15
2023-05-04T02:42:07.653Z,6.40
2023-05-04T02:44:34.281Z,5.85
2023-05-04T02:47:04.029Z,5.93
2023-05-04T02:49:31.123Z,6.57
2023-05-04T02:51:57.927Z,6.38
2023-05-04T02:54:24.478Z,6.38
2023-05-04T02:56:51.143Z,6.18
2023-05-04T02:59:17.728Z,6.25
2023-05-04T03:01:44.394Z,6.80
2023-05-04T03:04:11.088Z,6.75
2023-05-04T03:06:37.780Z,7.38
2023-05-04T03:09:04.731Z,7.32
2023-05-04T03:11:31.381Z,7.07
2023-05-04T03:13:57.977Z,6.63
2023-05-04T03:16:24.612Z,7.03
2023-05-04T03:24:01.633Z,7.30
2023-05-04T03:26:28.362Z,6.82
2023-05-04T03:28:54.988Z,6.85
2023-05-04T03:31:21.725Z,6.45
2023-05-04T03:33:48.333Z,7.18
2023-05-04T03:36:14.938Z,6.10
2023-05-04T03:38:42.245Z,6.28
2023-05-04T03:41:08.868Z,6.20
2023-05-04T03:43:35.687Z,6.47
2023-05-04T03:46:02.370Z,6.95
2023-05-04T03:48:29.022Z,7.10
2023-05-04T03:50:58.572Z,6.65
2023-05-04T03:53:25.770Z,6.13
2023-05-04T03:55:55.097Z,6.75
2023-05-04T03:58:21.671Z,5.63
2023-05-04T04:00:48.392Z,5.95
2023-05-04T04:03:15.147Z,6.95
2023-05-04T04:05:41.985Z,7.32
2023-05-04T04:08:08.521Z,6.72
2023-05-04T04:10:35.520Z,7.22
2023-05-04T04:13:02.200Z,7.43
2023-05-04T04:15:28.908Z,7.25
2023-05-04T04:17:58.524Z,6.50
2023-05-04T04:20:25.234Z,7.00
2023-05-04T04:22:52.154Z,6.57
2023-05-04T04:25:18.844Z,7.60
2023-05-04T04:27:45.452Z,7.05
2023-05-04T04:30:12.607Z,7.30
2023-05-04T04:32:39.590Z,7.43
2023-05-04T04:35:07.056Z,7.15
2023-05-04T04:37:33.844Z,6.53
2023-05-04T04:40:01.495Z,7.43
2023-05-04T04:42:28.403Z,7.45
2023-05-04T04:44:54.944Z,7.05
2023-05-04T04:47:21.890Z,7.15
2023-05-04T04:49:48.838Z,7.82
2023-05-04T04:52:15.779Z,7.70
2023-05-04T04:54:45.064Z,7.60
2023-05-04T04:57:20.985Z,7.60
2023-05-04T04:59:47.602Z,7.13
2023-05-04T05:02:14.365Z,7.40
2023-05-04T05:04:43.846Z,7.45
2023-05-04T05:07:10.482Z,6.97
2023-05-04T05:09:37.686Z,7.43
2023-05-04T05:12:06.608Z,7.38
2023-05-04T05:14:33.581Z,7.38
2023-05-04T05:17:06.330Z,8.02
2023-05-04T05:19:37.334Z,7.13
2023-05-04T05:22:07.103Z,6.75
2023-05-04T05:24:33.652Z,7.32
2023-05-04T05:27:00.702Z,7.15
2023-05-04T05:29:29.932Z,7.18
2023-05-04T05:31:56.584Z,7.35
2023-05-04T05:34:24.606Z,7.00
2023-05-04T05:36:51.433Z,6.45
2023-05-04T05:39:18.143Z,6.53
2023-05-04T05:41:44.796Z,6.72
2023-05-04T05:44:12.935Z,6.97
2023-05-04T05:46:39.894Z,6.60
2023-05-04T05:49:07.470Z,6.88
2023-05-04T05:51:34.200Z,6.63
2023-05-04T05:54:01.014Z,6.60
2023-05-04T05:56:27.596Z,7.07
2023-05-04T05:58:55.586Z,6.70
2023-05-04T06:01:22.653Z,6.72
2023-05-04T06:03:49.456Z,6.57
2023-05-04T06:06:17.310Z,6.85
2023-05-04T06:08:49.199Z,6.85
2023-05-04T06:11:15.735Z,6.78
2023-05-04T06:13:42.326Z,6.70
2023-05-04T06:16:11.401Z,6.80
2023-05-04T06:18:38.082Z,6.45
2023-05-04T06:21:04.900Z,7.35
2023-05-04T06:23:31.790Z,6.18
2023-05-04T06:25:58.731Z,6.35
2023-05-04T06:28:25.435Z,6.03
2023-05-04T06:31:02.199Z,6.20
2023-05-04T06:33:28.947Z,6.10
2023-05-04T06:35:55.561Z,6.05
2023-05-04T06:38:22.653Z,5.72
2023-05-04T06:40:58.398Z,5.60
2023-05-04T06:43:25.103Z,5.63
2023-05-04T06:45:51.784Z,6.53
2023-05-04T06:48:18.600Z,6.10
2023-05-04T06:50:52.748Z,4.55
2023-05-04T06:53:19.489Z,6.07
2023-05-04T06:55:46.118Z,5.22
2023-05-04T06:58:12.732Z,5.20
2023-05-04T07:00:41.750Z,4.70
2023-05-04T07:03:08.736Z,5.03
2023-05-04T07:05:37.134Z,4.93
2023-05-04T07:08:04.286Z,5.15
2023-05-04T07:10:30.869Z,5.18
2023-05-04T07:12:57.598Z,4.95
2023-05-04T07:15:24.327Z,5.25
2023-05-04T07:17:50.937Z,4.55
2023-05-04T07:20:23.483Z,5.15
2023-05-04T07:22:56.465Z,5.30
2023-05-04T07:25:27.182Z,5.40
2023-05-04T07:27:58.359Z,5.72
2023-05-04T07:30:25.276Z,5.60
2023-05-04T07:32:52.120Z,4.93
2023-05-04T07:35:19.147Z,5.15
2023-05-04T07:37:46.452Z,4.93
2023-05-04T07:40:14.889Z,5.00
2023-05-04T07:42:42.246Z,4.90
2023-05-04T07:45:10.142Z,5.50
2023-05-04T07:47:37.117Z,5.28
2023-05-04T07:50:05.013Z,5.03
2023-05-04T07:52:32.006Z,4.70
2023-05-04T07:55:01.475Z,4.82
2023-05-04T07:57:28.061Z,4.85
2023-05-04T07:59:55.967Z,4.88
2023-05-04T08:02:23.401Z,5.00
2023-05-04T08:04:50.162Z,4.63
2023-05-04T08:07:17.275Z,5.18
2023-05-04T08:09:49.824Z,4.80
2023-05-04T08:12:19.217Z,4.70
2023-05-04T08:14:47.305Z,4.78
2023-05-04T08:17:13.882Z,4.55
2023-05-04T08:19:40.652Z,5.07
2023-05-04T08:22:07.327Z,4.72
2023-05-04T08:24:34.324Z,5.32
2023-05-04T08:27:07.911Z,5.00
2023-05-04T08:29:37.315Z,4.93
2023-05-04T08:32:04.596Z,4.63
2023-05-04T08:34:34.562Z,5.07
2023-05-04T08:37:02.400Z,4.60
2023-05-04T08:39:29.267Z,4.45
2023-05-04T08:41:55.943Z,4.95
2023-05-04T08:44:22.880Z,6.03
2023-05-04T08:46:53.329Z,4.30
2023-05-04T08:49:20.980Z,4.78
2023-05-04T08:51:52.408Z,4.95
2023-05-04T08:54:20.062Z,4.95
2023-05-04T08:56:49.560Z,4.38
2023-05-04T08:59:21.754Z,4.35
2023-05-04T09:01:53.303Z,4.72
2023-05-04T09:04:21.067Z,4.78
2023-05-04T09:06:48.132Z,5.10
2023-05-04T09:09:14.983Z,4.25
2023-05-04T09:11:41.726Z,4.93
2023-05-04T09:14:08.362Z,4.80
2023-05-04T09:16:36.735Z,4.63
2023-05-04T09:19:04.868Z,4.45
2023-05-04T09:21:34.843Z,4.68
2023-05-04T09:24:01.478Z,4.47
2023-05-04T09:26:43.070Z,4.57
2023-05-04T09:29:14.850Z,4.82
2023-05-04T09:31:59.812Z,5.20
2023-05-04T09:34:29.161Z,4.55
2023-05-04T09:37:01.567Z,4.60
2023-05-04T09:43:19.761Z,5.10
2023-05-04T09:45:59.952Z,4.80
2023-05-04T09:48:29.635Z,4.80
2023-05-04T09:50:57.795Z,5.47
2023-05-04T09:53:26.554Z,4.70
2023-05-04T09:56:03.361Z,4.97
2023-05-04T09:58:40.769Z,5.28
2023-05-04T10:01:09.575Z,5.10
2023-05-04T10:03:46.287Z,5.28
2023-05-04T10:06:13.326Z,5.50
2023-05-04T10:09:03.840Z,5.07
2023-05-04T10:11:32.542Z,5.30
2023-05-04T10:14:01.961Z,4.72
2023-05-04T10:16:55.283Z,4.95
2023-05-04T10:19:36.885Z,5.07
2023-05-04T10:22:31.537Z,4.80
2023-05-04T10:25:25.080Z,5.75
2023-05-04T10:27:58.131Z,5.03
2023-05-04T10:30:25.064Z,4.13
2023-05-04T10:32:59.307Z,4.70
2023-05-04T10:35:26.966Z,4.95
2023-05-04T10:37:54.828Z,5.55
2023-05-04T10:40:42.138Z,4.45
2023-05-04T10:43:11.219Z,4.65
2023-05-04T10:45:40.064Z,4.82
2023-05-04T10:48:08.109Z,5.25
2023-05-04T10:50:44.439Z,4.90
2023-05-04T10:53:12.135Z,4.60
2023-05-04T10:55:47.103Z,5.28
2023-05-04T10:58:16.888Z,4.90
2023-05-04T11:00:51.964Z,4.60
2023-05-04T11:03:22.625Z,4.05
2023-05-04T11:05:53.034Z,4.18
2023-05-04T11:08:22.281Z,3.90
2023-05-04T11:11:01.200Z,3.60
2023-05-04T11:13:33.943Z,3.00
2023-05-04T11:16:01.381Z,3.33
2023-05-04T11:18:34.338Z,4.05
2023-05-04T11:21:01.717Z,3.35
2023-05-04T11:23:31.358Z,3.38
2023-05-04T11:25:57.989Z,3.55
2023-05-04T11:28:38.340Z,3.78
2023-05-04T11:31:15.138Z,3.88
2023-05-04T11:33:52.975Z,3.70
2023-05-04T11:36:21.209Z,3.10
2023-05-04T11:38:48.995Z,3.50
2023-05-04T11:41:15.662Z,3.85
2023-05-04T11:43:44.320Z,3.80
2023-05-04T11:46:11.635Z,3.63
2023-05-04T11:48:40.099Z,4.30
2023-05-04T11:51:07.046Z,4.13
2023-05-04T11:53:41.254Z,4.22
2023-05-04T11:56:09.315Z,4.43
2023-05-04T11:58:36.493Z,3.70
2023-05-04T12:01:04.128Z,3.72
2023-05-04T12:03:52.430Z,4.18
2023-05-04T12:06:30.700Z,3.22
2023-05-04T12:09:12.966Z,4.15
2023-05-04T12:11:40.859Z,4.55
2023-05-04T12:14:11.948Z,4.20
2023-05-04T12:16:39.042Z,4.13
2023-05-04T12:19:08.274Z,4.30
2023-05-04T12:22:08.566Z,4.22
2023-05-04T12:24:35.594Z,4.45
2023-05-04T12:27:02.260Z,4.85
2023-05-04T12:29:28.850Z,4.50
2023-05-04T12:31:55.585Z,4.80
2023-05-04T12:34:22.211Z,4.20
2023-05-04T12:36:50.844Z,3.78
2023-05-04T12:39:17.684Z,4.53
2023-05-04T12:41:44.311Z,4.25
2023-05-04T12:44:11.782Z,4.10
2023-05-04T12:46:41.483Z,4.22
2023-05-04T12:49:08.081Z,4.82
2023-05-04T12:51:34.739Z,5.80
2023-05-04T12:54:01.321Z,3.80
2023-05-04T12:56:28.369Z,4.15
2023-05-04T12:58:54.922Z,4.30
2023-05-04T13:01:22.097Z,4.93
2023-05-04T13:03:49.041Z,4.35
2023-05-04T13:06:16.013Z,3.78
2023-05-04T13:08:43.003Z,3.83
2023-05-04T13:11:09.574Z,3.83
2023-05-04T13:13:36.206Z,3.88
2023-05-04T13:16:03.015Z,4.43
2023-05-04T13:18:29.675Z,4.22
2023-05-04T13:20:56.864Z,3.20
2023-05-04T13:23:23.725Z,2.85
2023-05-04T13:25:51.480Z,2.63
2023-05-04T13:28:18.783Z,2.97
2023-05-04T13:30:45.347Z,3.25
2023-05-04T13:33:24.956Z,4.00
2023-05-04T13:35:58.014Z,3.42
2023-05-04T13:38:25.058Z,3.85
2023-05-04T13:40:51.653Z,3.38
2023-05-04T13:43:18.229Z,3.10
2023-05-04T13:45:44.950Z,3.10
2023-05-04T13:48:11.635Z,3.00
2023-05-04T13:50:38.352Z,2.80
2023-05-04T13:53:04.987Z,3.40
2023-05-04T13:55:31.689Z,3.15
2023-05-04T13:57:58.337Z,3.45
2023-05-04T14:00:25.008Z,3.28
2023-05-04T14:02:51.847Z,2.72
2023-05-04T14:05:18.922Z,2.80
2023-05-04T14:07:45.773Z,3.35
2023-05-04T14:10:13.127Z,3.30
2023-05-04T14:12:39.752Z,3.03
2023-05-04T14:15:08.222Z,3.47
2023-05-04T14:17:35.021Z,2.90
2023-05-04T14:20:01.718Z,3.72
2023-05-04T14:22:28.334Z,3.28
2023-05-04T14:24:54.968Z,2.90
2023-05-04T14:27:22.652Z,2.38
2023-05-04T14:29:49.370Z,2.63
2023-05-04T14:32:15.976Z,2.53
2023-05-04T14:34:42.700Z,2.60
2023-05-04T14:37:09.302Z,2.70
2023-05-04T14:39:36.608Z,2.30
2023-05-04T14:42:03.393Z,2.90
2023-05-04T14:44:30.212Z,3.08
2023-05-04T14:46:57.036Z,2.63
2023-05-04T14:49:35.481Z,2.35
2023-05-04T14:52:04.190Z,2.40
2023-05-04T14:54:30.737Z,2.42
2023-05-04T14:56:58.784Z,3.00
2023-05-04T14:59:26.208Z,2.33
2023-05-04T15:01:52.956Z,2.03
2023-05-04T15:04:19.577Z,2.95
2023-05-04T15:06:49.971Z,2.47
2023-05-04T15:09:16.643Z,2.22
2023-05-04T15:11:43.497Z,2.30
2023-05-04T15:14:10.057Z,2.38
2023-05-04T15:16:36.834Z,2.20
2023-05-04T15:19:03.593Z,2.60
2023-05-04T15:21:30.127Z,2.50
2023-05-04T15:23:56.868Z,2.20
2023-05-04T15:26:23.582Z,2.25
2023-05-04T15:28:51.538Z,2.67
2023-05-04T15:31:19.660Z,2.30
2023-05-04T15:33:46.330Z,2.63
2023-05-04T15:36:12.958Z,2.13
2023-05-04T15:38:39.542Z,2.25
2023-05-04T15:41:06.832Z,2.42
2023-05-04T15:43:34.045Z,2.10
2023-05-04T15:46:01.156Z,2.03
2023-05-04T15:48:27.992Z,2.20
2023-05-04T15:50:55.063Z,2.28
2023-05-04T15:53:21.864Z,2.40
2023-05-04T15:55:48.644Z,2.20
2023-05-04T15:58:15.312Z,2.55
2023-05-04T16:00:42.314Z,2.28
2023-05-04T16:03:09.129Z,1.85
2023-05-04T16:05:35.968Z,2.40
2023-05-04T16:08:02.862Z,2.35
2023-05-04T16:10:29.457Z,2.00
2023-05-04T16:12:56.199Z,1.90
2023-05-04T16:15:22.864Z,2.65
2023-05-04T16:17:49.597Z,1.90
2023-05-04T16:20:16.281Z,1.90
2023-05-04T16:22:42.831Z,2.08
2023-05-04T16:25:11.502Z,2.30
2023-05-04T16:27:39.126Z,1.73
2023-05-04T16:30:09.489Z,1.85
2023-05-04T16:32:36.375Z,2.03
2023-05-04T16:35:03.288Z,2.83
2023-05-04T16:37:29.950Z,2.60
2023-05-04T16:39:56.591Z,2.17
2023-05-04T16:42:23.260Z,2.40
2023-05-04T16:44:49.859Z,1.80
2023-05-04T16:47:16.457Z,2.65
2023-05-04T16:49:43.255Z,2.30
2023-05-04T16:52:09.833Z,2.08
2023-05-04T16:54:36.391Z,1.95
2023-05-04T16:57:03.015Z,2.42
2023-05-04T16:59:29.630Z,2.15
2023-05-04T17:01:57.449Z,2.20
2023-05-04T17:04:28.279Z,1.98
2023-05-04T17:06:57.069Z,1.80
2023-05-04T17:09:26.593Z,1.95
2023-05-04T17:11:53.310Z,2.00
2023-05-04T17:14:20.506Z,2.00
2023-05-04T17:16:47.677Z,2.00
2023-05-04T17:19:14.461Z,1.75
2023-05-04T17:21:41.400Z,2.20
2023-05-04T17:24:08.183Z,1.85
2023-05-04T17:26:35.121Z,1.83
2023-05-04T17:29:01.783Z,2.50
2023-05-04T17:31:28.519Z,2.15
2023-05-04T17:33:55.288Z,1.67
2023-05-04T17:36:22.005Z,2.33
2023-05-04T17:38:48.999Z,1.80
2023-05-04T17:41:16.097Z,1.88
2023-05-04T17:43:45.259Z,2.58
2023-05-04T17:46:12.615Z,2.45
2023-05-04T17:48:39.341Z,1.95
2023-05-04T17:51:09.608Z,3.05
2023-05-04T17:53:36.208Z,2.55
2023-05-04T17:56:06.093Z,2.58
2023-05-04T17:58:32.760Z,2.33
2023-05-04T18:00:59.489Z,2.28
2023-05-04T18:03:26.496Z,1.85
2023-05-04T18:05:56.002Z,2.10
2023-05-04T18:08:22.793Z,2.08
2023-05-04T18:10:53.139Z,1.90
2023-05-04T18:13:20.114Z,2.38
2023-05-04T18:15:47.775Z,2.20
2023-05-04T18:18:14.363Z,2.00
2023-05-04T18:20:41.002Z,2.65
2023-05-04T18:23:11.050Z,2.67
2023-05-04T18:25:37.774Z,2.10
2023-05-04T18:28:06.260Z,2.08
2023-05-04T18:30:32.991Z,2.05
2023-05-04T18:33:02.891Z,2.20
2023-05-04T18:35:29.619Z,2.88
2023-05-04T18:37:58.913Z,2.78
2023-05-04T18:40:26.917Z,2.30
2023-05-04T18:42:53.662Z,2.05
2023-05-04T18:45:20.404Z,2.42
2023-05-04T18:47:47.315Z,3.30
2023-05-04T18:50:16.944Z,2.90
2023-05-04T18:52:43.585Z,2.38
2023-05-04T18:55:10.205Z,2.70
2023-05-04T18:57:37.116Z,3.17
2023-05-04T19:00:06.724Z,2.75
2023-05-04T19:02:33.991Z,2.33
2023-05-04T19:05:01.038Z,2.50
2023-05-04T19:07:27.751Z,2.63
2023-05-04T19:09:55.502Z,2.20
2023-05-04T19:12:22.442Z,2.17
2023-05-04T19:14:50.640Z,2.30
2023-05-04T19:17:18.965Z,2.20
2023-05-04T19:19:45.723Z,3.20
2023-05-04T19:22:13.503Z,2.30
2023-05-04T19:24:40.275Z,2.22
2023-05-04T19:27:10.502Z,2.53
2023-05-04T19:29:37.371Z,2.40
2023-05-04T19:32:19.772Z,2.83
2023-05-04T19:34:50.852Z,2.88
2023-05-04T19:37:17.819Z,2.70
2023-05-04T19:39:44.703Z,2.33
2023-05-04T19:42:11.803Z,2.42
2023-05-04T19:44:38.753Z,2.17
2023-05-04T19:47:05.696Z,2.58
2023-05-04T19:49:33.007Z,3.25
2023-05-04T19:51:59.716Z,2.92
2023-05-04T19:54:26.593Z,2.45
2023-05-04T19:56:53.173Z,2.70
2023-05-04T19:59:20.068Z,3.10
2023-05-04T20:01:46.774Z,2.65
2023-05-04T20:04:13.864Z,2.50
2023-05-04T20:06:40.741Z,2.90
2023-05-04T20:09:07.595Z,2.40
2023-05-04T20:11:37.577Z,2.80
2023-05-04T20:14:04.278Z,2.70
2023-05-04T20:16:31.256Z,2.78
2023-05-04T20:18:57.999Z,3.22
2023-05-04T20:21:25.096Z,3.30
2023-05-04T20:23:51.710Z,3.28
2023-05-04T20:26:18.885Z,2.75
2023-05-04T20:28:45.859Z,3.10
2023-05-04T20:31:12.697Z,3.35
2023-05-04T20:33:39.343Z,2.97
2023-05-04T20:36:07.190Z,3.10
2023-05-04T20:38:33.955Z,3.85
2023-05-04T20:41:11.336Z,3.13
2023-05-04T20:43:38.768Z,3.58
2023-05-04T20:46:05.320Z,3.58
2023-05-04T20:48:35.541Z,4.00
2023-05-04T20:51:13.183Z,3.20
2023-05-04T20:53:41.540Z,4.47
2023-05-04T20:56:08.186Z,3.80
2023-05-04T20:58:34.924Z,4.40
2023-05-04T21:01:05.141Z,4.32
2023-05-04T21:03:32.274Z,4.20
2023-05-04T21:05:59.273Z,3.92
2023-05-04T21:08:26.193Z,4.32
2023-05-04T21:10:52.768Z,4.40
2023-05-04T21:13:19.607Z,4.05
2023-05-04T21:15:46.189Z,3.72
2023-05-04T21:18:12.881Z,2.90
2023-05-04T21:20:42.496Z,3.30
2023-05-04T21:23:09.020Z,4.20
2023-05-04T21:25:36.109Z,3.55
2023-05-04T21:28:03.330Z,3.67
2023-05-04T21:30:29.930Z,3.25
2023-05-04T21:32:56.648Z,3.03
2023-05-04T21:35:24.595Z,3.67
2023-05-04T21:37:51.185Z,3.53
2023-05-04T21:40:17.866Z,3.13
2023-05-04T21:42:44.411Z,3.25
2023-05-04T21:45:11.446Z,3.17
2023-05-04T21:47:38.085Z,3.85
2023-05-04T21:50:06.055Z,4.03
2023-05-04T21:52:32.864Z,3.50
2023-05-04T21:54:59.517Z,3.65
2023-05-04T21:57:26.159Z,3.90
2023-05-04T21:59:52.771Z,3.78
2023-05-04T22:02:19.432Z,4.45
2023-05-04T22:04:46.113Z,4.05
2023-05-04T22:07:12.806Z,4.18
2023-05-04T22:09:39.845Z,3.95
2023-05-04T22:12:07.622Z,4.00
2023-05-04T22:14:34.371Z,4.40
2023-05-04T22:17:01.508Z,4.40
2023-05-04T22:19:28.236Z,4.78
2023-05-04T22:21:55.343Z,4.20
2023-05-04T22:24:21.894Z,4.45
2023-05-04T22:26:48.420Z,5.22
2023-05-04T22:29:15.004Z,5.13
2023-05-04T22:31:41.559Z,5.25
2023-05-04T22:34:08.109Z,5.68
2023-05-04T22:36:34.726Z,5.70
2023-05-04T22:39:01.284Z,6.18
2023-05-04T22:41:27.829Z,6.50
2023-05-04T22:43:54.456Z,7.20
2023-05-04T22:46:21.361Z,6.75
2023-05-04T22:48:48.113Z,7.78
2023-05-04T22:51:15.799Z,7.22
2023-05-04T22:53:42.365Z,7.93
2023-05-04T22:56:08.983Z,6.88
2023-05-04T22:58:35.735Z,8.48
2023-05-04T23:01:02.978Z,8.70
2023-05-04T23:03:29.711Z,8.48
2023-05-04T23:05:59.825Z,8.35
2023-05-04T23:08:26.566Z,8.73
2023-05-04T23:10:53.164Z,10.00
2023-05-04T23:13:19.830Z,10.40
2023-05-04T23:15:46.656Z,11.43
2023-05-04T23:18:13.270Z,10.55
2023-05-04T23:20:39.922Z,10.55
2023-05-04T23:23:06.433Z,10.70
2023-05-04T23:25:33.296Z,10.48
2023-05-04T23:28:01.038Z,10.00
2023-05-04T23:30:27.595Z,10.25
2023-05-04T23:32:54.247Z,10.98
2023-05-04T23:35:20.868Z,10.68
2023-05-04T23:37:47.439Z,10.55
2023-05-04T23:40:14.106Z,10.90
2023-05-04T23:42:40.757Z,10.45
2023-05-04T23:45:07.899Z,11.15
2023-05-04T23:47:34.841Z,12.50
2023-05-04T23:50:01.559Z,12.98
2023-05-04T23:52:28.222Z,12.32
2023-05-04T23:54:54.841Z,12.48
2023-05-04T23:57:21.760Z,12.10
2023-05-04T23:59:48.352Z,12.07
